createdAt,value
2022-11-24T00:01:18.439Z,97646.81
2022-11-24T00:03:46.403Z,97653.25
2022-11-24T00:06:15.174Z,97651.84
2022-11-24T00:08:43.929Z,97653.75
2022-11-24T00:11:14.289Z,97655.88
2022-11-24T00:13:41.535Z,97658.03
2022-11-24T00:16:17.071Z,97662.09
2022-11-24T00:18:44.926Z,97665.97
2022-11-24T00:21:12.278Z,97663.28
2022-11-24T00:23:39.078Z,97663.09
2022-11-24T00:26:19.367Z,97661.63
2022-11-24T00:28:47.962Z,97669.25
2022-11-24T00:31:20.548Z,97665.97
2022-11-24T00:33:48.965Z,97673.38
2022-11-24T00:36:16.895Z,97675.91
2022-11-24T00:38:44.419Z,97682.09
2022-11-24T00:41:12.063Z,97679.78
2022-11-24T00:43:38.710Z,97689.41
2022-11-24T00:46:05.981Z,97690.28
2022-11-24T00:48:32.762Z,97690.44
2022-11-24T00:51:05.791Z,97697.19
2022-11-24T00:53:32.768Z,97699.50
2022-11-24T00:55:59.511Z,97705.00
2022-11-24T00:58:26.611Z,97712.63
2022-11-24T01:00:53.504Z,97706.66
2022-11-24T01:03:21.180Z,97718.28
2022-11-24T01:05:48.239Z,97714.00
2022-11-24T01:08:15.098Z,97727.59
2022-11-24T01:10:41.713Z,97729.06
2022-11-24T01:13:08.563Z,97727.16
2022-11-24T01:15:36.636Z,97739.22
2022-11-24T01:18:05.065Z,97738.56
2022-11-24T01:20:32.274Z,97749.22
2022-11-24T01:22:59.039Z,97754.38
2022-11-24T01:25:25.724Z,97776.34
2022-11-24T01:27:52.659Z,97773.94
2022-11-24T01:30:19.318Z,97780.75
2022-11-24T01:32:45.959Z,97785.34
2022-11-24T01:35:12.514Z,97773.72
2022-11-24T01:37:39.463Z,97777.50
2022-11-24T01:40:06.999Z,97780.13
2022-11-24T01:42:51.310Z,97799.78
2022-11-24T01:45:34.700Z,97806.25
2022-11-24T01:48:05.850Z,97811.22
2022-11-24T01:50:34.962Z,97814.41
2022-11-24T01:53:02.108Z,97813.16
2022-11-24T01:55:36.494Z,97812.19
2022-11-24T01:58:19.027Z,97822.00
2022-11-24T02:00:46.021Z,97827.94
2022-11-24T02:03:15.959Z,97825.00
2022-11-24T02:05:54.038Z,97829.47
2022-11-24T02:08:34.947Z,97820.38
2022-11-24T02:11:04.383Z,97817.66
2022-11-24T02:13:34.257Z,97822.75
2022-11-24T02:16:01.428Z,97818.53
2022-11-24T02:18:28.205Z,97818.59
2022-11-24T02:20:55.638Z,97825.41
2022-11-24T02:23:38.387Z,97814.66
2022-11-24T02:26:26.777Z,97820.25
2022-11-24T02:28:53.560Z,97833.47
2022-11-24T02:31:20.382Z,97829.91
2022-11-24T02:33:49.518Z,97825.16
2022-11-24T02:36:16.291Z,97821.47
2022-11-24T02:38:43.046Z,97822.94
2022-11-24T02:41:15.568Z,97820.53
2022-11-24T02:43:47.056Z,97829.22
2022-11-24T02:46:14.334Z,97837.34
2022-11-24T02:48:41.256Z,97826.84
2022-11-24T02:51:07.941Z,97831.13
2022-11-24T02:53:34.766Z,97826.72
2022-11-24T02:56:01.454Z,97835.59
2022-11-24T02:58:28.099Z,97830.47
2022-11-24T03:00:55.096Z,97837.63
2022-11-24T03:03:22.062Z,97838.47
2022-11-24T03:05:48.928Z,97836.44
2022-11-24T03:08:15.739Z,97839.94
2022-11-24T03:10:42.425Z,97842.63
2022-11-24T03:13:09.045Z,97847.56
2022-11-24T03:15:35.942Z,97848.44
2022-11-24T03:18:02.938Z,97848.75
2022-11-24T03:20:29.916Z,97850.38
2022-11-24T03:22:56.628Z,97860.38
2022-11-24T03:25:23.504Z,97862.03
2022-11-24T03:27:50.158Z,97865.34
2022-11-24T03:30:17.075Z,97865.47
2022-11-24T03:32:43.680Z,97873.97
2022-11-24T03:35:10.347Z,97868.28
2022-11-24T03:37:37.267Z,97870.72
2022-11-24T03:40:04.420Z,97866.88
2022-11-24T03:42:31.021Z,97872.31
2022-11-24T03:44:57.614Z,97874.28
2022-11-24T03:47:24.190Z,97875.16
2022-11-24T03:49:51.172Z,97873.22
2022-11-24T03:52:17.744Z,97875.03
2022-11-24T03:54:44.415Z,97880.03
2022-11-24T03:57:11.027Z,97870.19
2022-11-24T03:59:37.695Z,97876.03
2022-11-24T04:02:04.295Z,97883.44
2022-11-24T04:04:31.168Z,97873.28
2022-11-24T04:06:57.790Z,97878.56
2022-11-24T04:09:24.456Z,97871.94
2022-11-24T04:12:09.381Z,97882.00
2022-11-24T04:14:36.229Z,97880.97
2022-11-24T04:17:04.114Z,97887.31
2022-11-24T04:19:31.021Z,97891.06
2022-11-24T04:21:57.710Z,97886.13
2022-11-24T04:24:24.430Z,97897.47
2022-11-24T04:26:51.028Z,97900.06
2022-11-24T04:29:17.700Z,97903.47
2022-11-24T04:31:44.328Z,97906.50
2022-11-24T04:34:11.468Z,97904.94
2022-11-24T04:36:38.047Z,97907.44
2022-11-24T04:39:19.436Z,97907.28
2022-11-24T04:41:51.269Z,97905.94
2022-11-24T04:44:18.010Z,97910.09
2022-11-24T04:46:44.840Z,97920.19
2022-11-24T04:49:11.785Z,97927.06
2022-11-24T04:51:39.958Z,97931.78
2022-11-24T04:54:07.946Z,97927.97
2022-11-24T04:56:34.691Z,97940.91
2022-11-24T04:59:06.626Z,97931.47
2022-11-24T05:01:34.889Z,97942.78
2022-11-24T05:04:01.544Z,97935.09
2022-11-24T05:06:28.307Z,97946.38
2022-11-24T05:08:55.044Z,97948.53
2022-11-24T05:11:21.655Z,97953.94
2022-11-24T05:13:48.281Z,97958.81
2022-11-24T05:16:15.858Z,97955.41
2022-11-24T05:18:42.581Z,97955.03
2022-11-24T05:21:09.263Z,97942.34
2022-11-24T05:23:35.929Z,97957.84
2022-11-24T05:26:04.159Z,97940.66
2022-11-24T05:28:30.861Z,97948.34
2022-11-24T05:31:04.699Z,97951.50
2022-11-24T05:33:33.304Z,97954.78
2022-11-24T05:36:01.655Z,97958.94
2022-11-24T05:38:30.204Z,97961.47
2022-11-24T05:41:04.814Z,97960.91
2022-11-24T05:43:31.830Z,97967.09
2022-11-24T05:46:01.872Z,97962.25
2022-11-24T05:48:29.123Z,97970.47
2022-11-24T05:50:57.243Z,97972.41
2022-11-24T05:53:25.655Z,97972.22
2022-11-24T05:55:52.615Z,97977.16
2022-11-24T05:58:19.382Z,97977.09
2022-11-24T06:00:46.058Z,97980.63
2022-11-24T06:03:12.985Z,97975.94
2022-11-24T06:05:39.747Z,97983.22
2022-11-24T06:08:06.372Z,97989.28
2022-11-24T06:10:32.896Z,97996.78
2022-11-24T06:12:59.654Z,97990.97
2022-11-24T06:15:26.393Z,97994.19
2022-11-24T06:17:56.743Z,98004.69
2022-11-24T06:20:29.731Z,98000.09
2022-11-24T06:22:59.086Z,98000.63
2022-11-24T06:25:26.531Z,98016.63
2022-11-24T06:27:53.619Z,98020.81
2022-11-24T06:30:20.225Z,98027.28
2022-11-24T06:32:49.667Z,98027.50
2022-11-24T06:35:16.480Z,98029.94
2022-11-24T06:37:43.106Z,98030.88
2022-11-24T06:40:10.332Z,98031.56
2022-11-24T06:42:37.747Z,98038.22
2022-11-24T06:45:09.142Z,98039.94
2022-11-24T06:47:36.895Z,98047.84
2022-11-24T06:50:03.761Z,98054.47
2022-11-24T06:52:30.679Z,98054.91
2022-11-24T06:54:57.649Z,98054.91
2022-11-24T06:57:24.455Z,98070.00
2022-11-24T06:59:51.190Z,98076.78
2022-11-24T07:02:18.041Z,98074.06
2022-11-24T07:04:44.613Z,98086.06
2022-11-24T07:07:11.350Z,98097.97
2022-11-24T07:09:37.935Z,98094.22
2022-11-24T07:12:05.945Z,98084.88
2022-11-24T07:14:33.485Z,98093.50
2022-11-24T07:17:02.533Z,98100.06
2022-11-24T07:19:29.275Z,98105.81
2022-11-24T07:21:56.031Z,98103.84
2022-11-24T07:24:22.738Z,98106.50
2022-11-24T07:26:49.499Z,98110.00
2022-11-24T07:29:16.109Z,98108.94
2022-11-24T07:31:42.919Z,98101.31
2022-11-24T07:34:09.719Z,98103.00
2022-11-24T07:36:36.330Z,98093.81
2022-11-24T07:39:03.044Z,98100.53
2022-11-24T07:41:29.683Z,98107.59
2022-11-24T07:43:56.254Z,98115.00
2022-11-24T07:46:23.048Z,98115.97
2022-11-24T07:48:49.776Z,98115.75
2022-11-24T07:51:16.753Z,98128.50
2022-11-24T07:53:43.806Z,98121.72
2022-11-24T07:56:11.035Z,98127.03
2022-11-24T07:58:38.122Z,98127.03
2022-11-24T08:01:11.850Z,98133.44
2022-11-24T08:03:38.814Z,98136.53
2022-11-24T08:06:23.552Z,98132.00
2022-11-24T08:08:51.198Z,98138.75
2022-11-24T08:11:18.295Z,98132.53
2022-11-24T08:13:45.349Z,98133.31
2022-11-24T08:16:17.777Z,98138.84
2022-11-24T08:18:49.415Z,98141.63
2022-11-24T08:21:16.071Z,98127.94
2022-11-24T08:23:42.910Z,98153.69
2022-11-24T08:26:15.841Z,98150.63
2022-11-24T08:28:43.082Z,98150.28
2022-11-24T08:31:13.273Z,98159.47
2022-11-24T08:33:40.905Z,98158.25
2022-11-24T08:36:16.399Z,98159.78
2022-11-24T08:38:43.058Z,98160.38
2022-11-24T08:41:13.475Z,98159.91
2022-11-24T08:43:40.894Z,98157.97
2022-11-24T08:46:10.025Z,98157.72
2022-11-24T08:48:36.969Z,98146.44
2022-11-24T08:51:25.898Z,98137.03
2022-11-24T08:54:00.677Z,98137.66
2022-11-24T08:56:29.947Z,98125.72
2022-11-24T08:58:57.462Z,98122.78
2022-11-24T09:01:24.800Z,98132.38
2022-11-24T09:03:52.125Z,98118.56
2022-11-24T09:06:24.788Z,98120.69
2022-11-24T09:08:53.535Z,98115.59
2022-11-24T09:11:20.445Z,98108.97
2022-11-24T09:13:47.075Z,98108.00
2022-11-24T09:16:16.551Z,98116.09
2022-11-24T09:18:43.656Z,98114.53
2022-11-24T09:21:12.361Z,98112.13
2022-11-24T09:23:39.838Z,98109.16
2022-11-24T09:26:08.241Z,98106.63
2022-11-24T09:28:35.531Z,98114.97
2022-11-24T09:31:04.369Z,98120.75
2022-11-24T09:33:32.460Z,98109.38
2022-11-24T09:35:59.907Z,98121.75
2022-11-24T09:38:27.188Z,98124.50
2022-11-24T09:40:57.376Z,98123.47
2022-11-24T09:43:39.447Z,98121.31
2022-11-24T09:46:11.233Z,98125.16
2022-11-24T09:48:46.291Z,98134.34
2022-11-24T09:51:15.066Z,98131.44
2022-11-24T09:53:47.226Z,98128.81
2022-11-24T09:56:24.817Z,98138.13
2022-11-24T09:59:01.159Z,98148.06
2022-11-24T10:01:39.317Z,98133.44
2022-11-24T10:04:16.492Z,98134.72
2022-11-24T10:06:52.308Z,98138.25
2022-11-24T10:09:57.231Z,98145.00
2022-11-24T10:13:03.674Z,98145.13
2022-11-24T10:16:04.219Z,98137.97
2022-11-24T10:19:07.383Z,98144.41
2022-11-24T10:21:49.020Z,98148.47
2022-11-24T10:24:24.361Z,98142.72
2022-11-24T10:26:59.787Z,98136.59
2022-11-24T10:29:34.002Z,98136.59
2022-11-24T10:32:05.748Z,98132.31
2022-11-24T10:34:43.594Z,98148.59
2022-11-24T10:37:32.813Z,98146.34
2022-11-24T10:40:48.641Z,98142.38
2022-11-24T10:43:13.005Z,98133.59
2022-11-24T10:45:40.279Z,98133.38
2022-11-24T10:48:12.623Z,98128.97
2022-11-24T10:50:41.381Z,98127.09
2022-11-24T10:53:26.398Z,98120.66
2022-11-24T10:55:58.955Z,98121.47
2022-11-24T10:58:28.088Z,98111.53
2022-11-24T11:00:59.697Z,98107.09
2022-11-24T11:03:47.086Z,98109.38
2022-11-24T11:06:20.911Z,98107.44
2022-11-24T11:08:47.605Z,98112.88
2022-11-24T11:11:18.938Z,98107.28
2022-11-24T11:13:52.281Z,98116.28
2022-11-24T11:16:59.689Z,98107.13
2022-11-24T11:19:49.779Z,98105.66
2022-11-24T11:22:32.011Z,98094.38
2022-11-24T11:25:31.107Z,98109.88
2022-11-24T11:28:18.701Z,98103.19
2022-11-24T11:31:16.347Z,98106.56
2022-11-24T11:34:22.118Z,98107.94
2022-11-24T11:36:54.137Z,98098.78
2022-11-24T11:39:25.540Z,98104.84
2022-11-24T11:42:25.727Z,98097.78
2022-11-24T11:45:08.041Z,98100.91
2022-11-24T11:47:44.533Z,98092.56
2022-11-24T11:50:16.587Z,98094.47
2022-11-24T11:53:04.982Z,98096.94
2022-11-24T11:55:53.558Z,98101.00
2022-11-24T11:58:26.671Z,98098.50
2022-11-24T12:01:18.752Z,98092.44
2022-11-24T12:03:54.475Z,98089.72
2022-11-24T12:07:06.856Z,98091.78
2022-11-24T12:09:48.552Z,98097.00
2022-11-24T12:12:33.172Z,98104.22
2022-11-24T12:15:30.603Z,98105.97
2022-11-24T12:19:00.241Z,98107.66
2022-11-24T12:21:35.618Z,98108.56
2022-11-24T12:24:11.105Z,98101.16
2022-11-24T12:26:46.454Z,98101.16
2022-11-24T12:29:46.976Z,98098.00
2022-11-24T12:32:25.539Z,98097.28
2022-11-24T12:35:01.268Z,98091.59
2022-11-24T12:37:40.267Z,98096.53
2022-11-24T12:40:09.839Z,98090.38
2022-11-24T12:42:45.810Z,98089.38
2022-11-24T12:45:16.278Z,98094.47
2022-11-24T12:47:59.054Z,98102.56
2022-11-24T12:50:29.451Z,98111.44
2022-11-24T12:53:13.691Z,98099.22
2022-11-24T12:55:42.892Z,98100.94
2022-11-24T12:58:28.009Z,98112.75
2022-11-24T13:01:44.161Z,98099.28
2022-11-24T13:04:13.542Z,98095.69
2022-11-24T13:06:55.317Z,98095.69
2022-11-24T13:09:22.054Z,98099.59
2022-11-24T13:11:51.643Z,98089.72
2022-11-24T13:14:24.273Z,98094.56
2022-11-24T13:17:28.817Z,98097.25
2022-11-24T13:19:46.497Z,98097.34
2022-11-24T13:22:24.277Z,98106.19
2022-11-24T13:25:16.344Z,98094.16
2022-11-24T13:27:45.912Z,98101.59
2022-11-24T13:30:33.922Z,98098.31
2022-11-24T13:33:03.364Z,98099.72
2022-11-24T13:35:30.481Z,98103.13
2022-11-24T13:37:57.638Z,98099.81
2022-11-24T13:40:26.304Z,98101.25
2022-11-24T13:42:56.419Z,98106.03
2022-11-24T13:45:49.728Z,98108.91
2022-11-24T13:48:19.450Z,98098.69
2022-11-24T13:50:54.012Z,98110.94
2022-11-24T13:53:47.584Z,98102.38
2022-11-24T13:56:14.326Z,98105.66
2022-11-24T13:58:42.882Z,98102.03
2022-11-24T14:01:26.172Z,98104.28
2022-11-24T14:06:51.468Z,98100.00
2022-11-24T14:09:28.661Z,98111.16
2022-11-24T14:12:20.655Z,98103.75
2022-11-24T14:14:49.508Z,98091.91
2022-11-24T14:17:23.793Z,98101.91
2022-11-24T14:19:53.478Z,98107.91
2022-11-24T14:22:40.165Z,98107.69
2022-11-24T14:25:25.115Z,98101.31
2022-11-24T14:27:51.928Z,98108.59
2022-11-24T14:30:22.186Z,98107.25
2022-11-24T14:32:55.125Z,98107.16
2022-11-24T14:35:31.275Z,98110.66
2022-11-24T14:37:59.084Z,98114.28
2022-11-24T14:40:47.427Z,98110.28
2022-11-24T14:43:34.655Z,98110.09
2022-11-24T14:46:04.702Z,98115.75
2022-11-24T14:48:45.332Z,98123.19
2022-11-24T14:51:23.141Z,98130.09
2022-11-24T14:53:57.262Z,98126.19
2022-11-24T14:56:25.798Z,98127.00
2022-11-24T14:58:53.555Z,98131.22
2022-11-24T15:01:28.450Z,98128.41
2022-11-24T15:07:25.492Z,98139.38
2022-11-24T15:09:58.521Z,98143.88
2022-11-24T15:12:30.798Z,98146.59
2022-11-24T15:15:04.574Z,98150.19
2022-11-24T15:17:31.555Z,98155.63
2022-11-24T15:20:09.327Z,98159.09
2022-11-24T15:22:44.729Z,98160.72
2022-11-24T15:25:27.757Z,98154.66
2022-11-24T15:27:54.590Z,98162.63
2022-11-24T15:30:21.242Z,98166.81
2022-11-24T15:32:56.321Z,98168.25
2022-11-24T15:35:25.202Z,98166.19
2022-11-24T15:37:51.917Z,98165.97
2022-11-24T15:40:19.299Z,98171.47
2022-11-24T15:42:51.795Z,98173.53
2022-11-24T15:45:19.681Z,98166.09
2022-11-24T15:47:46.601Z,98179.06
2022-11-24T15:50:14.276Z,98180.16
2022-11-24T15:52:41.237Z,98194.50
2022-11-24T15:55:17.206Z,98183.69
2022-11-24T15:57:44.261Z,98184.94
2022-11-24T16:00:15.543Z,98185.03
2022-11-24T16:02:43.048Z,98189.13
2022-11-24T16:05:11.061Z,98184.09
2022-11-24T16:07:38.229Z,98184.59
2022-11-24T16:10:08.406Z,98189.84
2022-11-24T16:12:35.309Z,98197.44
2022-11-24T16:15:02.074Z,98216.47
2022-11-24T16:17:28.764Z,98227.94
2022-11-24T16:20:00.161Z,98238.28
2022-11-24T16:22:27.471Z,98258.56
2022-11-24T16:24:54.106Z,98263.84
2022-11-24T16:27:21.000Z,98270.53
2022-11-24T16:29:47.866Z,98268.50
2022-11-24T16:32:14.532Z,98274.84
2022-11-24T16:34:41.180Z,98275.88
2022-11-24T16:37:07.919Z,98285.97
2022-11-24T16:39:34.864Z,98286.13
2022-11-24T16:42:01.586Z,98288.81
2022-11-24T16:44:28.144Z,98296.03
2022-11-24T16:46:54.947Z,98300.50
2022-11-24T16:49:22.500Z,98306.88
2022-11-24T16:51:49.135Z,98324.06
2022-11-24T16:54:15.715Z,98326.50
2022-11-24T16:56:42.431Z,98325.19
2022-11-24T16:59:09.294Z,98315.19
2022-11-24T17:01:36.091Z,98326.00
2022-11-24T17:04:04.340Z,98323.81
2022-11-24T17:06:34.047Z,98317.94
2022-11-24T17:09:01.341Z,98328.16
2022-11-24T17:11:29.054Z,98323.91
2022-11-24T17:13:58.995Z,98324.78
2022-11-24T17:16:26.850Z,98321.63
2022-11-24T17:18:54.393Z,98320.16
2022-11-24T17:21:23.529Z,98328.38
2022-11-24T17:24:02.850Z,98321.34
2022-11-24T17:26:29.989Z,98324.06
2022-11-24T17:28:57.410Z,98326.78
2022-11-24T17:31:25.389Z,98334.06
2022-11-24T17:33:59.644Z,98344.28
2022-11-24T17:36:27.140Z,98353.97
2022-11-24T17:38:54.138Z,98355.16
2022-11-24T17:41:21.815Z,98356.09
2022-11-24T17:43:53.518Z,98356.72
2022-11-24T17:46:20.350Z,98357.81
2022-11-24T17:48:47.621Z,98358.59
2022-11-24T17:51:17.362Z,98366.41
2022-11-24T17:53:46.592Z,98363.69
2022-11-24T17:56:15.779Z,98352.84
2022-11-24T17:58:43.518Z,98361.28
2022-11-24T18:01:12.100Z,98367.56
2022-11-24T18:03:40.035Z,98372.84
2022-11-24T18:06:09.253Z,98370.72
2022-11-24T18:08:37.232Z,98379.34
2022-11-24T18:11:09.541Z,98370.00
2022-11-24T18:14:01.023Z,98384.66
2022-11-24T18:16:24.463Z,98388.59
2022-11-24T18:19:07.407Z,98376.50
2022-11-24T18:21:36.096Z,98374.09
2022-11-24T18:24:02.724Z,98371.81
2022-11-24T18:26:29.555Z,98372.72
2022-11-24T18:28:56.183Z,98371.19
2022-11-24T18:31:22.887Z,98371.25
2022-11-24T18:33:49.570Z,98365.94
2022-11-24T18:36:18.976Z,98358.56
2022-11-24T18:38:45.975Z,98371.19
2022-11-24T18:41:14.655Z,98371.00
2022-11-24T18:43:41.942Z,98358.34
2022-11-24T18:46:14.796Z,98366.00
2022-11-24T18:48:42.752Z,98374.81
2022-11-24T18:51:14.452Z,98382.19
2022-11-24T18:53:46.112Z,98388.06
2022-11-24T18:56:15.961Z,98386.41
2022-11-24T18:58:43.565Z,98382.25
2022-11-24T19:01:20.452Z,98376.56
2022-11-24T19:03:49.743Z,98381.56
2022-11-24T19:06:32.234Z,98384.88
2022-11-24T19:09:01.622Z,98390.03
2022-11-24T19:11:35.394Z,98394.31
2022-11-24T19:14:03.284Z,98394.56
2022-11-24T19:16:30.195Z,98393.16
2022-11-24T19:19:00.088Z,98390.31
2022-11-24T19:21:30.118Z,98406.31
2022-11-24T19:24:02.863Z,98399.78
2022-11-24T19:26:31.496Z,98408.59
2022-11-24T19:28:58.151Z,98408.53
2022-11-24T19:31:25.522Z,98404.75
2022-11-24T19:33:54.619Z,98416.47
2022-11-24T19:36:23.251Z,98404.59
2022-11-24T19:38:57.622Z,98413.94
2022-11-24T19:41:30.104Z,98412.88
2022-11-24T19:43:58.540Z,98417.16
2022-11-24T19:46:27.546Z,98409.44
2022-11-24T19:48:56.198Z,98413.94
2022-11-24T19:51:25.667Z,98377.44
2022-11-24T19:53:53.209Z,98416.28
2022-11-24T19:56:23.146Z,98422.00
2022-11-24T19:58:51.386Z,98429.25
2022-11-24T20:01:35.189Z,98425.91
2022-11-24T20:04:07.900Z,98428.84
2022-11-24T20:06:36.914Z,98423.78
2022-11-24T20:09:06.327Z,98427.03
2022-11-24T20:11:33.466Z,98433.31
2022-11-24T20:14:00.177Z,98429.19
2022-11-24T20:16:29.910Z,98425.72
2022-11-24T20:19:07.911Z,98431.06
2022-11-24T20:21:36.286Z,98435.72
2022-11-24T20:24:10.057Z,98442.94
2022-11-24T20:26:39.887Z,98442.81
2022-11-24T20:29:09.652Z,98445.13
2022-11-24T20:31:39.274Z,98454.56
2022-11-24T20:34:07.654Z,98446.44
2022-11-24T20:36:36.229Z,98443.97
2022-11-24T20:39:06.250Z,98449.34
2022-11-24T20:41:34.609Z,98457.47
2022-11-24T20:44:07.183Z,98456.59
2022-11-24T20:46:36.519Z,98458.88
2022-11-24T20:49:04.814Z,98456.84
2022-11-24T20:51:34.371Z,98457.47
2022-11-24T20:54:04.197Z,98452.81
2022-11-24T20:56:35.154Z,98454.50
2022-11-24T20:59:03.374Z,98463.00
2022-11-24T21:01:38.816Z,98460.41
2022-11-24T21:04:06.914Z,98457.66
2022-11-24T21:06:33.844Z,98449.47
2022-11-24T21:09:04.029Z,98456.91
2022-11-24T21:11:32.049Z,98466.84
2022-11-24T21:13:58.907Z,98461.69
2022-11-24T21:16:28.512Z,98461.03
2022-11-24T21:18:57.854Z,98460.88
2022-11-24T21:21:26.190Z,98456.72
2022-11-24T21:23:53.046Z,98451.66
2022-11-24T21:26:19.783Z,98463.63
2022-11-24T21:28:47.713Z,98463.09
2022-11-24T21:31:20.427Z,98462.34
2022-11-24T21:33:49.783Z,98466.97
2022-11-24T21:36:19.321Z,98466.44
2022-11-24T21:38:54.704Z,98449.34
2022-11-24T21:41:23.191Z,98460.09
2022-11-24T21:43:50.171Z,98463.56
2022-11-24T21:46:17.465Z,98463.91
2022-11-24T21:48:44.533Z,98468.06
2022-11-24T21:51:19.747Z,98461.03
2022-11-24T21:53:47.423Z,98469.69
2022-11-24T21:56:17.166Z,98461.41
2022-11-24T21:58:52.532Z,98463.06
2022-11-24T22:01:21.951Z,98468.88
2022-11-24T22:03:49.009Z,98465.31
2022-11-24T22:06:19.073Z,98452.75
2022-11-24T22:08:47.203Z,98457.38
2022-11-24T22:11:19.863Z,98456.66
2022-11-24T22:13:47.219Z,98440.47
2022-11-24T22:16:19.912Z,98443.50
2022-11-24T22:18:46.995Z,98444.31
2022-11-24T22:21:20.418Z,98449.59
2022-11-24T22:23:51.314Z,98457.97
2022-11-24T22:26:20.491Z,98448.00
2022-11-24T22:28:47.479Z,98451.13
2022-11-24T22:31:17.227Z,98447.94
2022-11-24T22:33:44.370Z,98442.25
2022-11-24T22:36:12.811Z,98437.97
2022-11-24T22:38:40.609Z,98446.09
2022-11-24T22:41:13.023Z,98442.81
2022-11-24T22:43:41.423Z,98448.78
2022-11-24T22:46:13.680Z,98434.63
2022-11-24T22:48:41.579Z,98427.00
2022-11-24T22:51:14.208Z,98435.44
2022-11-24T22:53:41.403Z,98430.50
2022-11-24T22:56:10.925Z,98435.25
2022-11-24T22:58:38.774Z,98436.84
2022-11-24T23:01:10.978Z,98439.59
2022-11-24T23:03:38.762Z,98444.75
2022-11-24T23:06:08.500Z,98440.41
2022-11-24T23:08:35.962Z,98436.09
2022-11-24T23:11:10.781Z,98443.56
2022-11-24T23:13:38.124Z,98452.22
2022-11-24T23:16:23.268Z,98451.00
2022-11-24T23:18:53.993Z,98454.53
2022-11-24T23:21:26.657Z,98450.78
2022-11-24T23:23:53.799Z,98449.66
2022-11-24T23:26:23.340Z,98442.34
2022-11-24T23:28:50.475Z,98429.44
2022-11-24T23:31:19.850Z,98424.69
2022-11-24T23:33:46.892Z,98415.38
2022-11-24T23:36:16.143Z,98409.69
2022-11-24T23:38:43.870Z,98411.47
2022-11-24T23:41:13.994Z,98412.94
2022-11-24T23:43:42.250Z,98408.84
2022-11-24T23:46:16.395Z,98406.19
2022-11-24T23:48:43.861Z,98411.19
2022-11-24T23:51:14.983Z,98411.25
2022-11-24T23:53:42.663Z,98412.34
2022-11-24T23:56:14.967Z,98414.06
2022-11-24T23:58:41.793Z,98413.47
